Terminal Aerodrome Forecast
Issued by NWS

Home | Current Version | Previous Version | Text Only | Print | Product List | Glossary Off
Versions: 1 2 3 4 5 6 7 8 9 10 11 12

000
FTUS43 KFGF 290500
TAFBJI
TAF
KBJI 290522Z 2906/3006 VRB03KT P6SM SKC
     FM291600 31008KT P6SM SCT050
     FM300000 VRB03KT P6SM SKC=

USA.gov is the U.S. government's official web portal to all federal, state and local government web resources and services.